Terminal Aerodrome Forecast
Issued by NWS

Home | Current Version | Previous Version | Text Only | Print | Product List | Glossary On
Versions: 1 2 3 4 5 6 7 8 9 10 11 12 13 14
797
FTUS44 KBMX 300520
TAFEET
TAF
KEET 300520Z 3006/0106 15007KT P6SM BKN250 WS019/17040KT
     FM300800 15008KT P6SM FEW040 FEW070 BKN250 WS019/17044KT
     FM301000 15009KT P6SM BKN025 OVC040 WS019/17047KT
     FM301300 15011G20KT P6SM OVC015
     FM301500 16018G28KT P6SM BKN025=

USA.gov is the U.S. government's official web portal to all federal, state and local government web resources and services.